createdAt,value
2018-07-17T00:01:17.717Z,16.50
2018-07-17T00:03:46.640Z,16.50
2018-07-17T00:06:15.480Z,16.50
2018-07-17T00:08:44.339Z,16.40
2018-07-17T00:11:14.340Z,16.40
2018-07-17T00:13:43.457Z,16.40
2018-07-17T00:16:12.365Z,16.40
2018-07-17T00:18:41.264Z,16.40
2018-07-17T00:21:10.704Z,16.40
2018-07-17T00:23:39.637Z,16.40
2018-07-17T00:28:38.982Z,16.30
2018-07-17T00:31:08.008Z,16.30
2018-07-17T00:33:36.894Z,16.20
2018-07-17T00:36:05.773Z,16.20
2018-07-17T00:38:34.632Z,16.20
2018-07-17T00:41:03.547Z,16.10
2018-07-17T00:43:32.406Z,16.00
2018-07-17T00:46:01.328Z,16.10
2018-07-17T00:48:30.220Z,16.00
2018-07-17T00:50:59.084Z,15.90
2018-07-17T00:55:56.500Z,15.90
2018-07-17T00:58:25.340Z,15.90
2018-07-17T01:03:27.200Z,15.90
2018-07-17T01:06:01.279Z,15.80
2018-07-17T01:08:35.331Z,15.80
2018-07-17T01:11:09.449Z,15.80
2018-07-17T01:16:29.403Z,15.80
2018-07-17T01:18:58.240Z,15.70
2018-07-17T01:23:55.693Z,15.70
2018-07-17T01:26:24.580Z,15.80
2018-07-17T01:28:53.410Z,15.80
2018-07-17T01:31:22.364Z,15.70
2018-07-17T01:33:51.195Z,15.70
2018-07-17T01:36:20.104Z,15.70
2018-07-17T01:38:49.464Z,15.70
2018-07-17T01:41:18.361Z,15.70
2018-07-17T01:48:44.246Z,15.70
2018-07-17T01:51:13.160Z,15.70
2018-07-17T01:53:42.044Z,15.60
2018-07-17T01:56:10.876Z,15.60
2018-07-17T01:58:39.767Z,15.50
2018-07-17T02:01:08.612Z,15.50
2018-07-17T02:08:37.846Z,15.50
2018-07-17T02:11:06.714Z,15.50
2018-07-17T02:13:35.604Z,15.60
2018-07-17T02:16:04.516Z,15.70
2018-07-17T02:18:33.364Z,15.60
2018-07-17T02:21:02.243Z,15.70
2018-07-17T02:23:31.149Z,15.60
2018-07-17T02:26:00.088Z,15.60
2018-07-17T02:28:28.997Z,15.60
2018-07-17T02:30:57.832Z,15.60
2018-07-17T02:33:26.696Z,15.60
2018-07-17T02:38:24.117Z,15.60
2018-07-17T02:40:52.964Z,15.60
2018-07-17T02:45:50.308Z,15.60
2018-07-17T02:48:19.196Z,15.70
2018-07-17T02:50:50.144Z,15.70
2018-07-17T02:53:19.033Z,15.70
2018-07-17T02:55:47.893Z,15.60
2018-07-17T02:58:16.796Z,15.60
2018-07-17T03:00:45.688Z,15.60
2018-07-17T03:03:14.528Z,15.60
2018-07-17T03:05:43.436Z,15.50
2018-07-17T03:08:12.312Z,15.50
2018-07-17T03:10:41.284Z,15.50
2018-07-17T03:15:38.684Z,15.50
2018-07-17T03:18:07.552Z,15.50
2018-07-17T03:23:04.873Z,15.40
2018-07-17T03:25:33.793Z,15.40
2018-07-17T03:28:02.800Z,15.40
2018-07-17T03:30:31.648Z,15.30
2018-07-17T03:33:00.568Z,15.30
2018-07-17T03:35:29.447Z,15.30
2018-07-17T03:37:58.351Z,15.30
2018-07-17T03:40:27.237Z,15.20
2018-07-17T03:42:56.096Z,15.20
2018-07-17T03:45:25.017Z,15.20
2018-07-17T03:48:05.788Z,15.20
2018-07-17T03:50:50.464Z,15.20
2018-07-17T03:53:19.333Z,15.20
2018-07-17T03:55:48.228Z,15.10
2018-07-17T03:58:17.137Z,15.20
2018-07-17T04:00:46.005Z,15.20
2018-07-17T04:03:14.957Z,15.30
2018-07-17T04:05:43.812Z,15.30
2018-07-17T04:08:14.402Z,15.30
2018-07-17T04:10:43.284Z,15.30
2018-07-17T04:13:12.208Z,15.40
2018-07-17T04:15:41.065Z,15.40
2018-07-17T04:18:10.017Z,15.40
2018-07-17T04:20:38.924Z,15.50
2018-07-17T04:23:07.780Z,15.50
2018-07-17T04:25:36.713Z,15.60
2018-07-17T04:28:05.926Z,15.60
2018-07-17T04:30:34.772Z,15.70
2018-07-17T04:35:32.404Z,15.70
2018-07-17T04:38:01.285Z,15.80
2018-07-17T04:40:30.181Z,15.80
2018-07-17T04:42:59.069Z,15.90
2018-07-17T04:45:27.909Z,15.90
2018-07-17T04:52:53.732Z,16.00
2018-07-17T04:55:22.647Z,16.00
2018-07-17T05:00:20.368Z,16.10
2018-07-17T05:02:49.316Z,16.10
2018-07-17T05:05:18.265Z,16.10
2018-07-17T05:07:47.176Z,16.20
2018-07-17T05:10:16.155Z,16.20
2018-07-17T05:12:45.045Z,16.20
2018-07-17T05:15:13.971Z,16.40
2018-07-17T05:17:42.844Z,16.60
2018-07-17T05:20:11.751Z,16.90
2018-07-17T05:25:09.348Z,17.00
2018-07-17T05:27:38.236Z,17.10
2018-07-17T05:30:07.148Z,17.30
2018-07-17T05:32:36.081Z,17.60
2018-07-17T05:35:05.155Z,17.70
2018-07-17T05:37:34.014Z,18.00
2018-07-17T05:40:03.704Z,18.20
2018-07-17T05:45:01.124Z,18.30
2018-07-17T05:47:30.014Z,18.20
2018-07-17T05:49:58.920Z,18.20
2018-07-17T05:52:27.758Z,18.20
2018-07-17T05:54:56.681Z,18.30
2018-07-17T05:57:25.540Z,18.20
2018-07-17T05:59:54.764Z,18.30
2018-07-17T06:02:23.638Z,18.50
2018-07-17T06:04:52.568Z,18.40
2018-07-17T06:07:21.452Z,18.50
2018-07-17T06:09:50.262Z,18.50
2018-07-17T06:12:19.508Z,18.60
2018-07-17T06:14:48.352Z,18.60
2018-07-17T06:17:17.248Z,18.60
2018-07-17T06:19:46.139Z,18.60
2018-07-17T06:22:15.078Z,18.70
2018-07-17T06:27:12.488Z,18.70
2018-07-17T06:29:41.488Z,18.80
2018-07-17T06:32:10.364Z,18.90
2018-07-17T06:34:39.217Z,19.00
2018-07-17T06:37:08.156Z,19.10
2018-07-17T06:39:37.025Z,19.30
2018-07-17T06:42:06.062Z,19.40
2018-07-17T06:44:34.996Z,19.60
2018-07-17T06:47:03.953Z,19.70
2018-07-17T06:52:01.332Z,19.90
2018-07-17T06:56:58.737Z,20.20
2018-07-17T06:59:27.649Z,20.40
2018-07-17T07:01:56.544Z,20.60
2018-07-17T07:04:25.507Z,20.70
2018-07-17T07:06:54.412Z,20.80
2018-07-17T07:09:23.292Z,20.80
2018-07-17T07:11:52.132Z,20.90
2018-07-17T07:14:21.121Z,20.90
2018-07-17T07:16:50.020Z,21.00
2018-07-17T07:19:18.932Z,21.10
2018-07-17T07:21:47.805Z,21.30
2018-07-17T07:26:45.172Z,22.00
2018-07-17T07:31:42.624Z,22.80
2018-07-17T07:34:11.522Z,23.10
2018-07-17T07:36:40.436Z,23.40
2018-07-17T07:41:38.860Z,23.80
2018-07-17T07:44:07.821Z,24.10
2018-07-17T07:46:36.708Z,24.40
2018-07-17T07:49:05.678Z,24.60
2018-07-17T07:51:34.508Z,24.70
2018-07-17T07:54:03.404Z,24.90
2018-07-17T07:56:32.281Z,25.00
2018-07-17T08:01:29.701Z,25.00
2018-07-17T08:03:58.780Z,25.10
2018-07-17T08:06:27.689Z,25.30
2018-07-17T08:08:56.570Z,25.40
2018-07-17T08:11:25.468Z,25.70
2018-07-17T08:13:54.917Z,25.70
2018-07-17T08:18:52.742Z,25.70
2018-07-17T08:21:21.600Z,25.50
2018-07-17T08:26:18.938Z,25.30
2018-07-17T08:28:47.876Z,25.40
2018-07-17T08:31:16.753Z,25.40
2018-07-17T08:33:45.681Z,25.40
2018-07-17T08:36:14.539Z,25.40
2018-07-17T08:38:43.433Z,25.30
2018-07-17T08:41:12.317Z,25.20
2018-07-17T08:43:41.231Z,25.40
2018-07-17T08:46:10.104Z,25.50
2018-07-17T08:48:39.007Z,25.50
2018-07-17T08:51:07.920Z,25.60
2018-07-17T08:56:11.197Z,26.00
2018-07-17T08:58:40.108Z,26.00
2018-07-17T09:01:09.469Z,26.00
2018-07-17T09:06:06.917Z,26.10
2018-07-17T09:08:35.824Z,26.20
2018-07-17T09:11:04.708Z,26.50
2018-07-17T09:13:33.596Z,26.70
2018-07-17T09:16:02.737Z,26.90
2018-07-17T09:18:31.635Z,27.00
2018-07-17T09:21:00.516Z,27.20
2018-07-17T09:23:29.440Z,27.40
2018-07-17T09:25:58.453Z,27.60
2018-07-17T09:28:27.452Z,27.60
2018-07-17T09:31:00.260Z,27.50
2018-07-17T09:35:58.712Z,27.30
2018-07-17T09:38:27.625Z,27.30
2018-07-17T09:40:56.584Z,27.60
2018-07-17T09:43:25.485Z,27.60
2018-07-17T09:45:54.369Z,27.50
2018-07-17T09:48:23.268Z,27.40
2018-07-17T09:50:52.160Z,27.30
2018-07-17T09:53:21.825Z,27.60
2018-07-17T09:55:50.728Z,27.60
2018-07-17T09:58:19.624Z,27.20
2018-07-17T10:00:53.565Z,27.00
2018-07-17T10:03:22.451Z,27.00
2018-07-17T10:08:19.896Z,27.40
2018-07-17T10:10:48.764Z,27.20
2018-07-17T10:13:17.779Z,26.80
2018-07-17T10:15:46.713Z,26.40
2018-07-17T10:18:15.628Z,26.20
2018-07-17T10:23:13.623Z,25.90
2018-07-17T10:30:39.515Z,25.30
2018-07-17T10:33:09.136Z,25.20
2018-07-17T10:35:38.032Z,25.10
2018-07-17T10:38:06.980Z,25.00
2018-07-17T10:40:35.911Z,25.00
2018-07-17T10:43:04.875Z,25.00
2018-07-17T10:45:34.049Z,25.00
2018-07-17T10:48:03.056Z,25.10
2018-07-17T10:50:31.980Z,25.20
2018-07-17T10:53:00.892Z,25.30
2018-07-17T10:55:29.831Z,25.30
2018-07-17T10:57:58.700Z,25.20
2018-07-17T11:00:27.641Z,25.20
2018-07-17T11:02:56.489Z,25.30
2018-07-17T11:05:25.424Z,25.20
2018-07-17T11:07:54.329Z,25.10
2018-07-17T11:10:23.244Z,25.00
2018-07-17T11:12:52.439Z,25.00
2018-07-17T11:15:21.363Z,25.10
2018-07-17T11:17:50.245Z,25.20
2018-07-17T11:20:19.142Z,25.10
2018-07-17T11:22:48.096Z,24.90
2018-07-17T11:25:17.125Z,25.00
2018-07-17T11:27:46.120Z,25.00
2018-07-17T11:30:15.160Z,25.10
2018-07-17T11:32:44.112Z,25.20
2018-07-17T11:35:13.021Z,25.10
2018-07-17T11:37:41.963Z,25.00
2018-07-17T11:40:10.895Z,24.90
2018-07-17T11:42:39.865Z,24.70
2018-07-17T11:45:08.916Z,24.50
2018-07-17T11:47:37.849Z,24.30
2018-07-17T11:55:04.288Z,23.90
2018-07-17T11:57:33.272Z,23.80
2018-07-17T12:00:02.254Z,23.80
2018-07-17T12:02:31.264Z,23.90
2018-07-17T12:05:00.241Z,23.90
2018-07-17T12:07:29.219Z,24.00
2018-07-17T12:09:58.215Z,24.10
2018-07-17T12:12:27.169Z,24.30
2018-07-17T12:14:56.157Z,24.50
2018-07-17T12:20:37.691Z,24.90
2018-07-17T12:23:32.647Z,25.10
2018-07-17T12:26:05.599Z,25.50
2018-07-17T12:28:34.601Z,25.70
2018-07-17T12:31:03.525Z,25.90
2018-07-17T12:36:03.637Z,26.10
2018-07-17T12:38:32.810Z,26.30
2018-07-17T12:41:01.797Z,26.40
2018-07-17T12:43:31.594Z,26.50
2018-07-17T12:46:00.674Z,26.60
2018-07-17T12:48:29.646Z,26.70
2018-07-17T12:50:58.593Z,26.70
2018-07-17T12:53:27.495Z,27.10
2018-07-17T12:55:56.485Z,26.70
2018-07-17T12:58:25.428Z,26.50
2018-07-17T13:05:52.393Z,26.40
2018-07-17T13:08:21.318Z,26.10
2018-07-17T13:10:50.292Z,25.90
2018-07-17T13:15:47.920Z,25.90
2018-07-17T13:18:16.998Z,26.20
2018-07-17T13:20:46.072Z,26.80
2018-07-17T13:23:14.939Z,27.30
2018-07-17T13:25:43.945Z,27.60
2018-07-17T13:28:13.921Z,27.50
2018-07-17T13:35:40.008Z,28.40
2018-07-17T13:43:06.108Z,28.70
2018-07-17T13:45:35.061Z,28.90
2018-07-17T13:50:32.524Z,29.00
2018-07-17T13:53:01.467Z,29.00
2018-07-17T13:55:30.495Z,29.00
2018-07-17T13:57:59.472Z,29.10
2018-07-17T14:00:28.413Z,28.80
2018-07-17T14:05:25.865Z,28.70
2018-07-17T14:07:56.433Z,28.90
2018-07-17T14:10:25.344Z,28.90
2018-07-17T14:12:54.390Z,29.20
2018-07-17T14:17:51.944Z,29.20
2018-07-17T14:20:20.929Z,29.10
2018-07-17T14:22:50.128Z,29.10
2018-07-17T14:27:47.688Z,29.10
2018-07-17T14:30:16.627Z,29.10
2018-07-17T14:32:45.968Z,29.10
2018-07-17T14:35:15.230Z,29.60
2018-07-17T14:40:12.850Z,29.70
2018-07-17T14:42:41.819Z,29.70
2018-07-17T14:45:10.737Z,29.70
2018-07-17T14:47:40.996Z,29.50
2018-07-17T14:50:11.274Z,29.80
2018-07-17T14:52:40.365Z,30.20
2018-07-17T14:55:10.711Z,30.50
2018-07-17T14:57:40.092Z,30.30
2018-07-17T15:00:10.196Z,30.00
2018-07-17T15:02:39.512Z,30.10
2018-07-17T15:05:09.757Z,30.30
2018-07-17T15:07:38.933Z,30.70
2018-07-17T15:10:08.574Z,30.90
2018-07-17T15:12:37.741Z,30.90
2018-07-17T15:15:08.011Z,31.00
2018-07-17T15:17:36.986Z,31.10
2018-07-17T15:20:06.024Z,31.30
2018-07-17T15:22:35.010Z,31.30
2018-07-17T15:25:04.109Z,31.60
2018-07-17T15:27:33.135Z,31.50
2018-07-17T15:30:02.265Z,31.50
2018-07-17T15:32:31.230Z,31.50
2018-07-17T15:35:00.143Z,31.80
2018-07-17T15:37:30.566Z,32.00
2018-07-17T15:40:00.374Z,32.10
2018-07-17T15:42:29.348Z,32.20
2018-07-17T15:44:58.265Z,32.30
2018-07-17T15:47:27.264Z,32.40
2018-07-17T15:49:56.249Z,32.10
2018-07-17T15:52:25.474Z,32.00
2018-07-17T15:54:54.477Z,32.00
2018-07-17T15:57:23.456Z,32.20
2018-07-17T15:59:52.615Z,32.00
2018-07-17T16:02:21.564Z,32.20
2018-07-17T16:04:50.593Z,32.50
2018-07-17T16:07:19.542Z,32.80
2018-07-17T16:09:48.555Z,33.10
2018-07-17T16:12:18.614Z,32.90
2018-07-17T16:14:47.673Z,32.60
2018-07-17T16:17:16.673Z,32.30
2018-07-17T16:19:45.630Z,32.00
2018-07-17T16:24:43.197Z,31.20
2018-07-17T16:27:12.161Z,31.30
2018-07-17T16:29:41.188Z,31.40
2018-07-17T16:32:10.238Z,31.40
2018-07-17T16:34:39.298Z,31.20
2018-07-17T16:37:08.725Z,30.60
2018-07-17T16:39:37.684Z,30.30
2018-07-17T16:42:07.147Z,29.90
2018-07-17T16:44:36.093Z,29.70
2018-07-17T16:47:05.073Z,29.30
2018-07-17T16:49:34.182Z,29.00
2018-07-17T16:52:03.104Z,28.70
2018-07-17T16:54:32.089Z,28.50
2018-07-17T16:57:01.042Z,28.40
2018-07-17T17:01:58.553Z,28.30
2018-07-17T17:04:27.505Z,28.60
2018-07-17T17:09:25.024Z,29.20
2018-07-17T17:11:54.005Z,29.40
2018-07-17T17:14:22.985Z,29.70
2018-07-17T17:16:51.973Z,30.00
2018-07-17T17:19:20.998Z,30.10
2018-07-17T17:21:49.945Z,30.30
2018-07-17T17:26:49.409Z,30.40
2018-07-17T17:29:18.455Z,30.40
2018-07-17T17:31:47.422Z,30.30
2018-07-17T17:34:16.400Z,30.40
2018-07-17T17:36:45.537Z,30.70
2018-07-17T17:39:14.436Z,32.30
2018-07-17T17:44:11.941Z,36.20
2018-07-17T17:49:09.478Z,37.40
2018-07-17T17:51:38.536Z,37.80
2018-07-17T17:54:08.345Z,38.10
2018-07-17T17:56:37.401Z,38.20
2018-07-17T17:59:07.090Z,37.80
2018-07-17T18:04:04.759Z,33.40
2018-07-17T18:06:33.823Z,31.60
2018-07-17T18:09:03.175Z,30.50
2018-07-17T18:11:32.182Z,30.40
2018-07-17T18:14:01.291Z,30.00
2018-07-17T18:16:30.289Z,29.30
2018-07-17T18:18:59.269Z,28.80
2018-07-17T18:21:28.261Z,28.20
2018-07-17T18:23:58.246Z,27.70
2018-07-17T18:26:28.907Z,26.90
2018-07-17T18:28:57.837Z,26.40
2018-07-17T18:31:26.793Z,26.00
2018-07-17T18:33:55.779Z,25.70
2018-07-17T18:36:24.698Z,25.40
2018-07-17T18:38:53.677Z,25.30
2018-07-17T18:41:22.617Z,25.10
2018-07-17T18:43:51.620Z,24.90
2018-07-17T18:46:20.653Z,24.80
2018-07-17T18:48:50.236Z,24.60
2018-07-17T18:51:35.038Z,24.40
2018-07-17T18:54:04.153Z,24.10
2018-07-17T18:56:33.918Z,24.00
2018-07-17T18:59:04.877Z,23.90
2018-07-17T19:01:33.802Z,23.80
2018-07-17T19:04:02.805Z,23.70
2018-07-17T19:06:31.785Z,23.50
2018-07-17T19:09:00.773Z,23.30
2018-07-17T19:11:29.710Z,23.10
2018-07-17T19:13:58.698Z,23.00
2018-07-17T19:16:27.673Z,22.90
2018-07-17T19:18:56.701Z,22.80
2018-07-17T19:21:25.670Z,22.70
2018-07-17T19:23:54.749Z,22.60
2018-07-17T19:26:23.727Z,22.60
2018-07-17T19:28:52.865Z,22.50
2018-07-17T19:33:51.419Z,22.40
2018-07-17T19:36:20.501Z,22.30
2018-07-17T19:38:49.521Z,22.10
2018-07-17T19:41:18.501Z,22.00
2018-07-17T19:43:47.806Z,21.80
2018-07-17T19:46:19.324Z,21.70
2018-07-17T19:48:48.368Z,21.60
2018-07-17T19:51:18.987Z,21.40
2018-07-17T19:53:47.963Z,21.30
2018-07-17T19:56:16.929Z,21.30
2018-07-17T19:58:45.947Z,21.40
2018-07-17T20:01:15.028Z,21.40
2018-07-17T20:03:44.577Z,21.40
2018-07-17T20:06:13.593Z,21.40
2018-07-17T20:13:40.354Z,21.20
2018-07-17T20:16:09.425Z,21.10
2018-07-17T20:18:38.787Z,20.90
2018-07-17T20:21:08.236Z,20.80
2018-07-17T20:23:37.169Z,20.70
2018-07-17T20:26:06.140Z,20.60
2018-07-17T20:28:35.171Z,20.40
2018-07-17T20:31:04.127Z,20.30
2018-07-17T20:33:33.090Z,20.20
2018-07-17T20:36:02.951Z,20.00
2018-07-17T20:38:32.516Z,19.80
2018-07-17T20:41:02.174Z,19.60
2018-07-17T20:43:33.316Z,19.50
2018-07-17T20:46:10.543Z,19.50
2018-07-17T20:53:37.145Z,19.50
2018-07-17T20:56:06.677Z,19.40
2018-07-17T20:58:36.960Z,19.40
2018-07-17T21:01:07.308Z,19.40
2018-07-17T21:06:05.172Z,19.20
2018-07-17T21:08:34.154Z,19.20
2018-07-17T21:11:03.167Z,19.10
2018-07-17T21:13:32.741Z,19.10
2018-07-17T21:16:01.711Z,19.10
2018-07-17T21:18:30.664Z,19.10
2018-07-17T21:20:59.609Z,19.10
2018-07-17T21:23:28.543Z,19.10
2018-07-17T21:25:57.460Z,19.00
2018-07-17T21:28:26.387Z,19.00
2018-07-17T21:30:55.300Z,19.00
2018-07-17T21:33:24.196Z,19.00
2018-07-17T21:35:53.109Z,19.00
2018-07-17T21:40:50.552Z,19.00
2018-07-17T21:43:19.476Z,19.00
2018-07-17T21:48:16.784Z,18.90
2018-07-17T21:50:45.697Z,18.80
2018-07-17T21:53:14.604Z,18.80
2018-07-17T21:55:43.455Z,18.80
2018-07-17T21:58:12.363Z,18.70
2018-07-17T22:00:41.265Z,18.70
2018-07-17T22:03:10.152Z,18.60
2018-07-17T22:05:39.057Z,18.60
2018-07-17T22:08:08.036Z,18.60
2018-07-17T22:10:36.954Z,18.50
2018-07-17T22:13:06.029Z,18.40
2018-07-17T22:15:34.929Z,18.40
2018-07-17T22:18:03.873Z,18.30
2018-07-17T22:20:32.857Z,18.30
2018-07-17T22:23:01.800Z,18.30
2018-07-17T22:25:30.717Z,18.20
2018-07-17T22:27:59.687Z,18.10
2018-07-17T22:30:28.584Z,18.10
2018-07-17T22:32:57.536Z,18.10
2018-07-17T22:35:27.468Z,18.10
2018-07-17T22:37:56.371Z,18.00
2018-07-17T22:40:25.292Z,18.00
2018-07-17T22:45:22.660Z,18.00
2018-07-17T22:47:51.568Z,17.90
2018-07-17T22:52:50.721Z,17.90
2018-07-17T22:55:19.613Z,18.00
2018-07-17T22:57:48.529Z,18.00
2018-07-17T23:00:17.435Z,17.90
2018-07-17T23:02:46.313Z,17.90
2018-07-17T23:05:15.236Z,17.80
2018-07-17T23:07:44.104Z,17.70
2018-07-17T23:10:13.020Z,17.70
2018-07-17T23:12:41.894Z,17.70
2018-07-17T23:20:07.824Z,17.60
2018-07-17T23:22:50.684Z,17.60
2018-07-17T23:25:19.976Z,17.50
2018-07-17T23:30:17.656Z,17.40
2018-07-17T23:35:15.292Z,17.40
2018-07-17T23:37:45.057Z,17.30
2018-07-17T23:40:14.343Z,17.30
2018-07-17T23:42:43.206Z,17.30
2018-07-17T23:45:12.532Z,17.30
2018-07-17T23:50:09.979Z,17.30
2018-07-17T23:52:38.844Z,17.30
2018-07-17T23:55:07.860Z,17.30
2018-07-17T23:57:36.737Z,17.30
